Time;durP1;ratioP1;P1;durP2;ratioP2;P2;SDS_P1;SDS_P2;PMS_P1;PMS_P2;Temp;Humidity;BMP_temperature;BMP_pressure;BME280_temperature;BME280_humidity;BME280_pressure;Samples;Min_cycle;Max_cycle;Signal;HPM_P1;HPM_P2
2021/09/29 00:00:44;;;;;;;11.05;7.47;;;;;;;;;;4978978;28;20046;-65
2021/09/29 00:03:11;;;;;;;10.18;7.97;;;;;;;;;;4995919;28;20061;-65
2021/09/29 00:05:39;;;;;;;8.65;7.10;;;;;;;;;;4996131;28;20054;-65
2021/09/29 00:08:07;;;;;;;9.25;6.63;;;;;;;;;;4978878;28;20054;-65
2021/09/29 00:10:34;;;;;;;7.75;6.78;;;;;;;;;;4978553;28;20092;-65
2021/09/29 00:13:01;;;;;;;8.63;7.15;;;;;;;;;;4978417;28;20120;-65
2021/09/29 00:15:27;;;;;;;11.57;7.32;;;;;;;;;;4962743;28;20124;-65
2021/09/29 00:17:54;;;;;;;7.00;6.30;;;;;;;;;;4962679;28;20046;-65
2021/09/29 00:20:21;;;;;;;7.80;6.22;;;;;;;;;;4978575;28;20421;-65
2021/09/29 00:22:47;;;;;;;8.40;6.43;;;;;;;;;;4995633;28;20097;-65
2021/09/29 00:25:15;;;;;;;7.32;6.47;;;;;;;;;;4978254;28;20054;-65
2021/09/29 00:27:43;;;;;;;7.07;6.07;;;;;;;;;;4978334;28;20105;-65
2021/09/29 00:30:10;;;;;;;10.00;6.97;;;;;;;;;;4978292;28;20047;-65
2021/09/29 00:32:42;;;;;;;10.27;5.90;;;;;;;;;;4978224;28;20058;-65
2021/09/29 00:35:10;;;;;;;8.63;6.75;;;;;;;;;;4963324;28;20476;-65
2021/09/29 00:37:37;;;;;;;7.00;6.13;;;;;;;;;;4978211;28;20050;-65
2021/09/29 00:40:05;;;;;;;8.07;6.13;;;;;;;;;;4962103;28;20564;-65
2021/09/29 00:42:32;;;;;;;7.18;6.47;;;;;;;;;;4995227;28;20049;-65
2021/09/29 00:44:59;;;;;;;6.97;5.97;;;;;;;;;;4977805;28;20418;-65
2021/09/29 00:47:28;;;;;;;7.78;6.60;;;;;;;;;;4978132;28;20054;-65
2021/09/29 00:49:55;;;;;;;7.28;6.40;;;;;;;;;;4978386;28;20054;-65
2021/09/29 00:52:22;;;;;;;7.28;6.57;;;;;;;;;;4995091;28;20054;-65
2021/09/29 00:54:48;;;;;;;7.72;6.28;;;;;;;;;;4958743;28;20101;-65
2021/09/29 00:57:15;;;;;;;9.02;6.75;;;;;;;;;;4975715;28;20549;-65
2021/09/29 00:59:42;;;;;;;6.38;5.78;;;;;;;;;;4975748;28;20050;-65
2021/09/29 01:02:08;;;;;;;11.30;6.95;;;;;;;;;;4975182;28;20569;-65
2021/09/29 01:04:35;;;;;;;6.15;5.38;;;;;;;;;;4958333;28;20061;-65
2021/09/29 01:07:11;;;;;;;9.52;6.45;;;;;;;;;;4958409;28;20062;-65
2021/09/29 01:09:40;;;;;;;8.90;6.85;;;;;;;;;;4974349;28;20054;-65
2021/09/29 01:12:19;;;;;;;8.80;7.00;;;;;;;;;;4975292;28;20051;-65
2021/09/29 01:14:59;;;;;;;9.20;6.50;;;;;;;;;;4958145;28;20114;-65
2021/09/29 01:17:26;;;;;;;11.27;7.05;;;;;;;;;;4958292;28;20055;-65
2021/09/29 01:20:11;;;;;;;10.18;7.05;;;;;;;;;;4958117;28;20054;-65
2021/09/29 01:22:41;;;;;;;8.10;6.53;;;;;;;;;;4974113;28;20465;-65
2021/09/29 01:25:17;;;;;;;7.72;6.63;;;;;;;;;;4993691;28;20054;-65
2021/09/29 01:27:44;;;;;;;11.02;6.85;;;;;;;;;;4962605;28;20051;-65
2021/09/29 01:30:11;;;;;;;7.93;7.13;;;;;;;;;;4961055;28;20050;-65
2021/09/29 01:32:39;;;;;;;8.80;6.80;;;;;;;;;;4961222;28;20054;-65
2021/09/29 01:35:06;;;;;;;11.20;6.82;;;;;;;;;;4961008;28;20054;-65
2021/09/29 01:37:33;;;;;;;8.45;7.05;;;;;;;;;;4961457;28;20409;-64
2021/09/29 01:39:59;;;;;;;10.20;7.47;;;;;;;;;;4976864;28;20046;-65
2021/09/29 01:42:26;;;;;;;9.93;7.03;;;;;;;;;;4960952;28;20058;-65
2021/09/29 01:44:53;;;;;;;7.35;6.47;;;;;;;;;;4960928;28;20480;-65
2021/09/29 01:47:19;;;;;;;9.93;7.15;;;;;;;;;;5017337;23;20117;-65
2021/09/29 01:49:48;;;;;;;9.52;7.40;;;;;;;;;;4976994;28;20050;-65
2021/09/29 01:52:20;;;;;;;10.25;7.32;;;;;;;;;;4961424;28;20501;-67
2021/09/29 01:54:48;;;;;;;9.45;6.78;;;;;;;;;;4994069;28;20062;-67
2021/09/29 01:57:15;;;;;;;9.27;7.63;;;;;;;;;;4976826;28;20058;-67
2021/09/29 01:59:43;;;;;;;11.68;7.63;;;;;;;;;;4994002;28;20081;-67
2021/09/29 02:02:11;;;;;;;10.43;7.07;;;;;;;;;;4960622;28;20070;-68
2021/09/29 02:04:48;;;;;;;10.68;7.18;;;;;;;;;;4960919;28;20056;-68
2021/09/29 02:07:15;;;;;;;9.57;8.38;;;;;;;;;;4961014;28;20069;-66
2021/09/29 02:09:42;;;;;;;9.13;7.47;;;;;;;;;;4976503;28;20054;-67
2021/09/29 02:12:09;;;;;;;10.75;8.25;;;;;;;;;;4993432;28;20050;-67
2021/09/29 02:14:36;;;;;;;11.13;7.80;;;;;;;;;;4993627;28;20097;-68
2021/09/29 02:17:03;;;;;;;9.60;7.53;;;;;;;;;;4975756;28;20105;-67
2021/09/29 02:19:29;;;;;;;13.00;8.20;;;;;;;;;;4993719;28;20050;-67
2021/09/29 02:21:56;;;;;;;7.93;7.13;;;;;;;;;;4993382;28;20054;-68
2021/09/29 02:24:23;;;;;;;9.95;7.72;;;;;;;;;;4993822;28;20054;-67
2021/09/29 02:26:50;;;;;;;13.13;8.32;;;;;;;;;;4960367;28;20109;-67
2021/09/29 02:29:16;;;;;;;9.35;7.93;;;;;;;;;;4976043;28;20049;-67
2021/09/29 02:31:43;;;;;;;10.35;8.32;;;;;;;;;;4975683;28;20050;-67
2021/09/29 02:34:10;;;;;;;11.82;8.52;;;;;;;;;;4976013;28;20120;-67
2021/09/29 02:36:37;;;;;;;11.32;8.15;;;;;;;;;;4975901;28;20085;-67
2021/09/29 02:39:04;;;;;;;10.30;8.60;;;;;;;;;;4975954;28;20504;-68
2021/09/29 02:41:31;;;;;;;10.43;8.77;;;;;;;;;;4975777;28;20461;-67
2021/09/29 02:43:58;;;;;;;11.77;8.20;;;;;;;;;;4959937;28;20607;-68
2021/09/29 02:46:25;;;;;;;11.90;8.52;;;;;;;;;;4992984;28;20057;-67
2021/09/29 02:48:52;;;;;;;12.70;9.48;;;;;;;;;;4993411;28;20046;-67
2021/09/29 02:51:19;;;;;;;11.52;8.77;;;;;;;;;;4992760;28;20108;-68
2021/09/29 02:53:46;;;;;;;12.93;8.95;;;;;;;;;;4959841;28;20432;-66
2021/09/29 02:56:12;;;;;;;9.75;8.10;;;;;;;;;;4975584;28;20493;-68
2021/09/29 02:58:39;;;;;;;11.70;8.90;;;;;;;;;;4975946;28;20046;-68
2021/09/29 03:01:06;;;;;;;10.35;8.35;;;;;;;;;;4975591;28;20513;-67
2021/09/29 03:03:33;;;;;;;12.07;8.55;;;;;;;;;;4975489;28;20482;-67
2021/09/29 03:06:00;;;;;;;9.70;8.18;;;;;;;;;;4992747;28;20055;-67
2021/09/29 03:08:26;;;;;;;11.73;8.52;;;;;;;;;;4960859;28;20057;-67
2021/09/29 03:10:53;;;;;;;11.23;8.23;;;;;;;;;;4959636;28;20046;-68
2021/09/29 03:13:19;;;;;;;14.63;8.30;;;;;;;;;;4992513;28;20121;-67
2021/09/29 03:15:46;;;;;;;11.18;8.60;;;;;;;;;;4992624;28;20054;-68
2021/09/29 03:18:14;;;;;;;9.10;7.72;;;;;;;;;;4975429;28;20505;-67
2021/09/29 03:20:41;;;;;;;8.60;7.45;;;;;;;;;;4975426;28;20053;-67
2021/09/29 03:23:08;;;;;;;11.10;7.82;;;;;;;;;;4975005;28;20081;-67
2021/09/29 03:25:34;;;;;;;12.95;8.20;;;;;;;;;;4992513;28;20054;-67
2021/09/29 03:28:01;;;;;;;9.90;7.88;;;;;;;;;;4958154;28;20563;-67
2021/09/29 03:30:28;;;;;;;9.10;6.85;;;;;;;;;;4975387;28;20105;-67
2021/09/29 03:32:55;;;;;;;9.60;7.10;;;;;;;;;;4992238;28;20056;-67
2021/09/29 03:35:21;;;;;;;9.63;7.45;;;;;;;;;;4975127;28;20050;-67
2021/09/29 03:37:48;;;;;;;11.70;7.68;;;;;;;;;;4975098;28;20528;-67
2021/09/29 03:40:15;;;;;;;10.38;7.63;;;;;;;;;;4992133;28;20046;-68
2021/09/29 03:42:42;;;;;;;9.45;6.45;;;;;;;;;;4992108;28;20100;-68
2021/09/29 03:45:09;;;;;;;10.85;6.78;;;;;;;;;;4959257;28;20062;-68
2021/09/29 03:47:36;;;;;;;10.35;6.60;;;;;;;;;;4993148;28;20077;-67
2021/09/29 03:50:04;;;;;;;8.98;7.03;;;;;;;;;;4963349;28;20054;-68
2021/09/29 03:52:34;;;;;;;9.88;6.50;;;;;;;;;;4979015;28;20076;-68
2021/09/29 03:55:05;;;;;;;10.30;6.03;;;;;;;;;;4993475;28;20145;-67
2021/09/29 03:57:35;;;;;;;7.45;6.07;;;;;;;;;;4997312;28;20046;-67
2021/09/29 04:00:26;;;;;;;8.18;6.22;;;;;;;;;;4956681;28;20054;-68
2021/09/29 04:02:54;;;;;;;7.72;6.45;;;;;;;;;;4977400;28;20046;-67
2021/09/29 04:05:21;;;;;;;8.25;6.15;;;;;;;;;;4979636;28;20081;-68
2021/09/29 04:07:54;;;;;;;9.50;6.53;;;;;;;;;;4961095;28;20058;-68
2021/09/29 04:10:21;;;;;;;8.20;6.25;;;;;;;;;;4992994;28;20117;-67
2021/09/29 04:12:49;;;;;;;10.73;6.30;;;;;;;;;;4992162;28;20051;-67
2021/09/29 04:15:16;;;;;;;10.95;7.25;;;;;;;;;;4989997;28;20081;-67
2021/09/29 04:17:43;;;;;;;9.55;6.00;;;;;;;;;;4992031;28;20058;-67
2021/09/29 04:20:10;;;;;;;7.70;6.60;;;;;;;;;;4974311;28;20109;-67
2021/09/29 04:22:37;;;;;;;9.02;5.97;;;;;;;;;;4991463;28;20520;-67
2021/09/29 04:25:07;;;;;;;10.93;6.22;;;;;;;;;;4955298;28;20051;-67
2021/09/29 04:27:34;;;;;;;8.48;5.78;;;;;;;;;;4955910;28;20051;-67
2021/09/29 04:30:00;;;;;;;10.60;5.95;;;;;;;;;;4972267;28;20057;-66
2021/09/29 04:32:28;;;;;;;8.93;6.53;;;;;;;;;;4972308;28;20047;-67
2021/09/29 04:34:54;;;;;;;8.98;6.53;;;;;;;;;;4955107;28;20102;-67
2021/09/29 04:37:21;;;;;;;7.38;6.15;;;;;;;;;;4989483;28;20128;-66
2021/09/29 04:39:48;;;;;;;9.10;6.10;;;;;;;;;;4994638;28;20094;-67
2021/09/29 04:42:14;;;;;;;10.48;6.00;;;;;;;;;;4995198;28;20046;-67
2021/09/29 04:44:41;;;;;;;11.88;6.25;;;;;;;;;;4995516;28;20468;-67
2021/09/29 04:47:08;;;;;;;8.90;6.03;;;;;;;;;;4959876;28;20047;-67
2021/09/29 04:49:34;;;;;;;9.30;5.45;;;;;;;;;;4978130;28;20398;-67
2021/09/29 04:52:01;;;;;;;6.22;5.50;;;;;;;;;;4977556;28;20564;-67
2021/09/29 04:54:28;;;;;;;10.95;5.93;;;;;;;;;;4978178;28;20054;-67
2021/09/29 04:56:54;;;;;;;8.20;5.75;;;;;;;;;;4995103;28;20046;-67
2021/09/29 04:59:21;;;;;;;7.68;5.43;;;;;;;;;;4978012;28;20113;-67
2021/09/29 05:01:52;;;;;;;5.80;5.13;;;;;;;;;;4994572;28;20047;-67
2021/09/29 05:04:24;;;;;;;9.35;5.45;;;;;;;;;;4994320;28;20060;-67
2021/09/29 05:06:51;;;;;;;10.60;5.30;;;;;;;;;;4960783;28;20497;-67
2021/09/29 05:09:17;;;;;;;8.10;5.65;;;;;;;;;;4958505;28;20050;-67
2021/09/29 05:11:49;;;;;;;8.18;5.20;;;;;;;;;;4994798;28;20046;-67
2021/09/29 05:14:16;;;;;;;8.80;4.77;;;;;;;;;;4978061;28;20043;-67
2021/09/29 05:16:44;;;;;;;7.45;5.38;;;;;;;;;;4977601;28;20472;-67
2021/09/29 05:19:11;;;;;;;10.57;5.57;;;;;;;;;;4977266;28;20497;-67
2021/09/29 05:21:39;;;;;;;8.45;5.10;;;;;;;;;;4994204;28;20136;-67
2021/09/29 05:24:06;;;;;;;8.73;5.88;;;;;;;;;;4977082;28;20088;-67
2021/09/29 05:26:34;;;;;;;10.10;4.80;;;;;;;;;;4994500;28;20054;-67
2021/09/29 05:29:01;;;;;;;5.50;4.93;;;;;;;;;;4994898;28;20050;-67
2021/09/29 05:31:28;;;;;;;4.93;4.43;;;;;;;;;;4976946;28;20050;-67
2021/09/29 05:33:54;;;;;;;6.82;4.35;;;;;;;;;;4994494;28;20085;-67
2021/09/29 05:36:21;;;;;;;9.02;4.95;;;;;;;;;;4977234;28;20054;-67
2021/09/29 05:38:48;;;;;;;5.75;4.80;;;;;;;;;;4961632;28;20054;-67
2021/09/29 05:41:15;;;;;;;6.53;4.07;;;;;;;;;;4977115;28;20489;-67
2021/09/29 05:43:41;;;;;;;9.25;5.35;;;;;;;;;;4976991;28;20054;-67
2021/09/29 05:46:08;;;;;;;6.03;3.97;;;;;;;;;;4994025;28;20101;-67
2021/09/29 05:48:35;;;;;;;7.78;4.88;;;;;;;;;;4994152;28;20046;-67
2021/09/29 05:51:01;;;;;;;7.38;4.10;;;;;;;;;;4975804;28;20050;-68
2021/09/29 05:53:33;;;;;;;7.53;4.03;;;;;;;;;;4993770;28;20081;-67
2021/09/29 05:55:59;;;;;;;5.72;3.85;;;;;;;;;;4991653;28;20050;-67
2021/09/29 05:58:26;;;;;;;6.45;4.53;;;;;;;;;;4992074;28;20058;-67
2021/09/29 06:00:52;;;;;;;7.47;4.15;;;;;;;;;;4991969;28;20042;-67
2021/09/29 06:03:20;;;;;;;9.85;5.60;;;;;;;;;;4991417;28;20470;-67
2021/09/29 06:05:48;;;;;;;5.22;4.72;;;;;;;;;;4991976;28;20061;-67
2021/09/29 06:08:15;;;;;;;4.25;3.33;;;;;;;;;;4974111;28;20050;-67
2021/09/29 06:10:41;;;;;;;7.13;3.80;;;;;;;;;;4974759;28;20108;-67
2021/09/29 06:13:08;;;;;;;6.07;3.72;;;;;;;;;;4991743;28;20083;-68
2021/09/29 06:15:35;;;;;;;6.47;3.88;;;;;;;;;;4974256;28;20050;-67
2021/09/29 06:18:03;;;;;;;5.82;3.30;;;;;;;;;;4974370;28;20497;-67
2021/09/29 06:20:35;;;;;;;7.15;3.50;;;;;;;;;;4974020;28;20057;-67
2021/09/29 06:23:02;;;;;;;11.95;5.45;;;;;;;;;;4990995;28;20054;-67
2021/09/29 06:25:29;;;;;;;10.10;4.57;;;;;;;;;;4991577;28;20691;-67
2021/09/29 06:27:56;;;;;;;8.43;4.47;;;;;;;;;;4973895;28;20054;-67
2021/09/29 06:30:22;;;;;;;8.63;3.70;;;;;;;;;;4974119;28;20493;-67
2021/09/29 06:32:49;;;;;;;11.20;4.93;;;;;;;;;;4973543;28;20097;-68
2021/09/29 06:35:16;;;;;;;6.30;3.45;;;;;;;;;;4973146;28;20042;-67
2021/09/29 06:37:43;;;;;;;7.28;3.10;;;;;;;;;;4990588;28;20042;-67
2021/09/29 06:40:17;;;;;;;6.10;2.97;;;;;;;;;;4990512;28;20057;-67
2021/09/29 06:42:45;;;;;;;10.40;2.83;;;;;;;;;;4990853;28;20058;-68
2021/09/29 06:45:13;;;;;;;8.40;2.75;;;;;;;;;;4990388;28;20054;-67
2021/09/29 06:47:40;;;;;;;11.80;2.90;;;;;;;;;;4956750;28;20058;-68
2021/09/29 06:50:08;;;;;;;8.02;3.72;;;;;;;;;;4988117;28;20046;-67
2021/09/29 06:52:36;;;;;;;6.70;2.88;;;;;;;;;;4990693;28;20093;-67
2021/09/29 06:55:04;;;;;;;7.40;2.78;;;;;;;;;;4973303;28;20050;-67
2021/09/29 06:57:31;;;;;;;4.03;2.78;;;;;;;;;;4990984;28;20054;-67
2021/09/29 06:59:57;;;;;;;7.20;2.90;;;;;;;;;;4956385;28;20101;-67
2021/09/29 07:02:24;;;;;;;4.18;2.20;;;;;;;;;;4973134;28;20402;-66
2021/09/29 07:04:51;;;;;;;6.05;2.33;;;;;;;;;;4990666;28;20058;-67
2021/09/29 07:07:21;;;;;;;6.15;2.53;;;;;;;;;;4958833;28;20046;-66
2021/09/29 07:09:48;;;;;;;3.75;2.00;;;;;;;;;;4978083;28;20042;-65
2021/09/29 07:12:15;;;;;;;4.70;1.83;;;;;;;;;;4980270;28;20046;-66
2021/09/29 07:14:45;;;;;;;3.38;2.05;;;;;;;;;;4975986;28;20066;-67
2021/09/29 07:17:12;;;;;;;2.90;1.92;;;;;;;;;;4975735;28;20050;-67
2021/09/29 07:19:39;;;;;;;4.03;1.73;;;;;;;;;;4977705;28;20097;-65
2021/09/29 07:22:06;;;;;;;5.45;2.10;;;;;;;;;;4975876;28;20548;-67
2021/09/29 07:24:33;;;;;;;7.47;2.72;;;;;;;;;;4979049;28;20101;-66
2021/09/29 07:26:59;;;;;;;4.85;2.05;;;;;;;;;;4978388;28;20051;-67
2021/09/29 07:29:27;;;;;;;4.45;1.92;;;;;;;;;;4979867;28;20501;-67
2021/09/29 07:31:53;;;;;;;3.42;1.85;;;;;;;;;;4979618;28;20055;-72
2021/09/29 07:34:23;;;;;;;2.75;1.55;;;;;;;;;;4979936;28;20058;-72
2021/09/29 07:36:50;;;;;;;6.00;1.75;;;;;;;;;;4962277;28;20054;-72
2021/09/29 07:39:17;;;;;;;3.95;1.85;;;;;;;;;;4982831;28;20046;-71
2021/09/29 07:41:44;;;;;;;2.22;1.60;;;;;;;;;;4960287;28;20054;-70
2021/09/29 07:44:12;;;;;;;3.30;1.58;;;;;;;;;;4979859;28;20053;-71
2021/09/29 07:46:42;;;;;;;6.20;1.70;;;;;;;;;;5026958;23;20062;-71
2021/09/29 07:49:22;;;;;;;3.00;1.80;;;;;;;;;;4962218;28;20122;-73
2021/09/29 07:51:59;;;;;;;3.08;1.27;;;;;;;;;;4963989;28;20051;-70
2021/09/29 07:54:27;;;;;;;3.55;1.00;;;;;;;;;;4964315;28;20051;-71
2021/09/29 07:56:54;;;;;;;1.98;1.00;;;;;;;;;;4960159;28;20092;-72
2021/09/29 07:59:22;;;;;;;4.78;1.10;;;;;;;;;;4942266;29;20067;-72
2021/09/29 08:01:52;;;;;;;2.38;0.95;;;;;;;;;;4939776;29;20075;-64
2021/09/29 08:04:21;;;;;;;2.03;1.00;;;;;;;;;;4943357;29;20062;-65
2021/09/29 08:06:48;;;;;;;5.55;1.00;;;;;;;;;;4942858;28;20502;-65
2021/09/29 08:09:15;;;;;;;2.33;1.30;;;;;;;;;;4939730;28;20051;-64
2021/09/29 08:11:42;;;;;;;4.22;1.17;;;;;;;;;;4958490;28;20493;-64
2021/09/29 08:14:09;;;;;;;4.45;1.00;;;;;;;;;;4940889;28;20052;-64
2021/09/29 08:16:36;;;;;;;4.03;1.13;;;;;;;;;;4944793;28;20055;-64
2021/09/29 08:19:02;;;;;;;3.90;1.20;;;;;;;;;;4942468;28;20079;-64
2021/09/29 08:21:30;;;;;;;6.63;1.55;;;;;;;;;;4947635;28;20047;-65
2021/09/29 08:24:19;;;;;;;2.30;0.93;;;;;;;;;;4945099;29;20052;-64
2021/09/29 08:27:31;;;;;;;4.70;1.00;;;;;;;;;;4945968;29;20048;-64
2021/09/29 08:37:26;;;;;;;2.92;1.38;;;;;;;;;;4944083;29;20557;-64
2021/09/29 08:40:08;;;;;;;1.65;1.00;;;;;;;;;;4942039;29;20083;-64
2021/09/29 08:45:59;;;;;;;4.20;0.93;;;;;;;;;;4946237;29;20449;-64
2021/09/29 09:15:59;;;;;;;4.95;0.88;;;;;;;;;;4943761;29;20162;-65
2021/09/29 09:18:26;;;;;;;1.55;0.70;;;;;;;;;;4943411;28;20138;-65
2021/09/29 09:21:05;;;;;;;2.28;0.63;;;;;;;;;;4942005;28;20509;-65
2021/09/29 09:23:42;;;;;;;3.55;0.90;;;;;;;;;;4945830;29;20127;-65
2021/09/29 09:26:27;;;;;;;3.58;0.80;;;;;;;;;;4944469;29;20055;-64
2021/09/29 09:29:05;;;;;;;3.13;0.82;;;;;;;;;;4941513;29;20051;-64
2021/09/29 09:31:32;;;;;;;3.63;0.77;;;;;;;;;;4944494;29;20561;-64
2021/09/29 09:34:07;;;;;;;6.57;1.42;;;;;;;;;;4943623;29;20100;-64
2021/09/29 09:36:39;;;;;;;5.57;1.35;;;;;;;;;;4946710;28;20576;-64
2021/09/29 09:39:11;;;;;;;3.67;0.77;;;;;;;;;;4944530;29;20098;-64
2021/09/29 09:41:45;;;;;;;4.40;1.40;;;;;;;;;;4945195;29;20043;-65
2021/09/29 09:44:11;;;;;;;3.03;0.80;;;;;;;;;;4941329;29;20118;-64
2021/09/29 09:46:38;;;;;;;3.38;1.30;;;;;;;;;;4947660;28;20529;-64
2021/09/29 09:49:08;;;;;;;4.30;0.93;;;;;;;;;;4955928;28;20079;-64
2021/09/29 09:51:48;;;;;;;7.35;1.02;;;;;;;;;;4944101;29;20047;-65
2021/09/29 09:54:15;;;;;;;2.92;0.90;;;;;;;;;;4953253;29;20126;-65
2021/09/29 09:56:47;;;;;;;2.90;0.70;;;;;;;;;;4955001;28;20660;-65
2021/09/29 09:59:14;;;;;;;3.75;0.90;;;;;;;;;;4955277;28;20708;-65
2021/09/29 10:01:41;;;;;;;2.55;0.77;;;;;;;;;;4955156;28;20529;-65
2021/09/29 10:04:14;;;;;;;4.32;0.88;;;;;;;;;;4954939;29;20043;-64
2021/09/29 10:06:41;;;;;;;4.32;0.65;;;;;;;;;;4955268;28;20079;-65
2021/09/29 10:12:04;;;;;;;2.17;0.82;;;;;;;;;;4954753;28;20137;-65
2021/09/29 10:28:10;;;;;;;2.03;0.70;;;;;;;;;;4943457;28;20047;-65
2021/09/29 10:30:47;;;;;;;5.50;0.93;;;;;;;;;;4945130;29;20054;-65
2021/09/29 10:33:22;;;;;;;2.33;0.80;;;;;;;;;;4941206;29;20043;-67
2021/09/29 10:36:23;;;;;;;5.05;1.05;;;;;;;;;;4939852;29;20070;-65
2021/09/29 10:44:24;;;;;;;1.88;0.50;;;;;;;;;;4979405;28;20133;-65
2021/09/29 10:46:59;;;;;;;6.03;0.73;;;;;;;;;;4959815;28;20051;-66
2021/09/29 10:49:50;;;;;;;2.05;0.65;;;;;;;;;;4978273;28;20050;-65
2021/09/29 10:52:39;;;;;;;2.88;0.68;;;;;;;;;;4977616;28;20050;-66
2021/09/29 11:09:39;;;;;;;2.50;0.98;;;;;;;;;;4980644;28;20042;-74
2021/09/29 11:31:23;;;;;;;5.22;0.90;;;;;;;;;;4976539;28;20047;-77
2021/09/29 11:34:06;;;;;;;1.83;0.60;;;;;;;;;;4977075;28;20050;-76
2021/09/29 11:39:27;;;;;;;3.22;0.60;;;;;;;;;;4979349;28;20505;-72
2021/09/29 12:10:05;;;;;;;2.20;0.52;;;;;;;;;;4978711;28;20509;-68
2021/09/29 12:12:35;;;;;;;1.95;0.40;;;;;;;;;;4978371;28;20473;-68
2021/09/29 12:15:07;;;;;;;3.60;0.70;;;;;;;;;;4982040;28;20120;-72
2021/09/29 12:17:36;;;;;;;2.33;0.70;;;;;;;;;;4983178;28;20054;-70
2021/09/29 12:20:19;;;;;;;1.00;0.45;;;;;;;;;;4976534;28;20458;-71
2021/09/29 12:22:55;;;;;;;;;;;;;;;;;;4983568;28;20043;-70
2021/09/29 12:25:31;;;;;;;3.28;1.13;;;;;;;;;;4979066;28;19948;-71
2021/09/29 12:28:45;;;;;;;1.35;0.77;;;;;;;;;;4972190;28;20062;-72
2021/09/29 12:36:33;;;;;;;1.48;0.50;;;;;;;;;;4977509;28;20107;-66
2021/09/29 12:39:02;;;;;;;3.38;0.65;;;;;;;;;;4980737;28;20417;-66
2021/09/29 12:41:30;;;;;;;1.63;0.50;;;;;;;;;;4977542;28;20054;-72
2021/09/29 12:44:13;;;;;;;1.65;0.52;;;;;;;;;;4973338;28;20445;-71
2021/09/29 12:46:40;;;;;;;3.90;0.50;;;;;;;;;;4980702;28;20050;-66
2021/09/29 12:49:12;;;;;;;0.68;0.40;;;;;;;;;;4983504;28;20064;-65
2021/09/29 12:54:32;;;;;;;2.40;0.52;;;;;;;;;;4983196;28;20112;-65
2021/09/29 12:56:59;;;;;;;0.93;0.30;;;;;;;;;;4983864;28;20461;-65
2021/09/29 12:59:25;;;;;;;4.03;0.38;;;;;;;;;;4982932;28;20059;-66
2021/09/29 13:01:52;;;;;;;2.33;0.50;;;;;;;;;;4986645;28;20043;-66
2021/09/29 13:04:22;;;;;;;5.78;0.95;;;;;;;;;;4983513;28;20454;-66
2021/09/29 13:06:48;;;;;;;1.88;0.40;;;;;;;;;;4986881;28;20441;-65
2021/09/29 13:09:15;;;;;;;1.40;0.43;;;;;;;;;;4983645;28;20454;-66
2021/09/29 13:11:41;;;;;;;1.40;0.50;;;;;;;;;;4986505;28;20050;-66
2021/09/29 13:14:08;;;;;;;1.52;0.50;;;;;;;;;;4984813;28;20039;-66
2021/09/29 13:16:35;;;;;;;3.05;0.50;;;;;;;;;;4986036;28;20465;-66
2021/09/29 13:19:17;;;;;;;1.77;0.50;;;;;;;;;;4984272;28;20547;-69
2021/09/29 13:22:00;;;;;;;2.45;0.65;;;;;;;;;;4980775;28;20057;-70
2021/09/29 13:37:25;;;;;;;3.47;0.40;;;;;;;;;;4983217;28;20440;-70
2021/09/29 13:39:51;;;;;;;3.38;1.05;;;;;;;;;;4984252;28;20054;-64
2021/09/29 13:42:19;;;;;;;2.97;0.60;;;;;;;;;;4986974;28;20050;-69
2021/09/29 13:44:49;;;;;;;2.53;0.50;;;;;;;;;;4983460;28;20046;-65
2021/09/29 13:47:16;;;;;;;4.72;1.10;;;;;;;;;;4986902;28;20456;-66
2021/09/29 13:49:43;;;;;;;3.58;0.77;;;;;;;;;;4979388;28;20047;-71
2021/09/29 13:52:14;;;;;;;3.55;0.60;;;;;;;;;;4985905;28;20070;-69
2021/09/29 13:54:42;;;;;;;3.47;1.25;;;;;;;;;;4985339;28;20085;-71
2021/09/29 13:57:22;;;;;;;0.55;0.47;;;;;;;;;;4983252;28;20050;-72
2021/09/29 14:02:49;;;;;;;2.95;0.52;;;;;;;;;;4984205;28;20054;-70
2021/09/29 14:33:17;;;;;;;0.85;0.20;;;;;;;;;;4972279;28;20058;-64
2021/09/29 14:35:44;;;;;;;0.20;0.20;;;;;;;;;;4980480;28;20101;-64
2021/09/29 14:38:11;;;;;;;2.47;0.45;;;;;;;;;;4981945;28;20058;-63
2021/09/29 14:40:38;;;;;;;0.47;0.20;;;;;;;;;;4983378;28;20100;-64
2021/09/29 14:43:04;;;;;;;0.50;0.35;;;;;;;;;;4979730;28;20046;-64
2021/09/29 14:45:31;;;;;;;0.30;0.10;;;;;;;;;;4979216;28;20054;-63
2021/09/29 14:47:58;;;;;;;0.85;0.20;;;;;;;;;;4982507;28;20508;-63
2021/09/29 14:50:27;;;;;;;0.98;0.30;;;;;;;;;;4980800;28;20128;-63
2021/09/29 14:52:56;;;;;;;1.85;0.35;;;;;;;;;;4983607;28;20050;-63
2021/09/29 14:55:24;;;;;;;0.77;0.30;;;;;;;;;;4978915;28;20050;-63
2021/09/29 14:57:51;;;;;;;1.77;0.40;;;;;;;;;;4973441;28;20464;-63
2021/09/29 15:00:18;;;;;;;0.30;0.30;;;;;;;;;;4980169;28;20197;-63
2021/09/29 15:02:45;;;;;;;0.30;0.20;;;;;;;;;;4977566;28;20469;-63
2021/09/29 15:05:12;;;;;;;0.22;0.20;;;;;;;;;;4979613;28;20053;-63
2021/09/29 15:07:39;;;;;;;1.40;0.30;;;;;;;;;;4977074;28;20513;-63
2021/09/29 15:10:06;;;;;;;1.48;0.30;;;;;;;;;;4977573;28;20506;-63
2021/09/29 15:12:34;;;;;;;0.80;0.30;;;;;;;;;;4978633;28;20418;-63
2021/09/29 15:15:19;;;;;;;0.40;0.10;;;;;;;;;;4982084;28;20050;-63
2021/09/29 15:20:22;;;;;;;1.25;0.40;;;;;;;;;;4976353;28;20097;-64
2021/09/29 15:30:40;;;;;;;0.60;0.22;;;;;;;;;;4954712;28;20069;-64
2021/09/29 15:47:04;;;;;;;1.33;0.63;;;;;;;;;;4978404;28;20051;-64
2021/09/29 15:52:19;;;;;;;0.93;0.30;;;;;;;;;;4974689;28;20053;-71
2021/09/29 16:00:11;;;;;;;1.95;0.35;;;;;;;;;;4980476;28;20548;-70
2021/09/29 16:02:45;;;;;;;0.43;0.25;;;;;;;;;;4977683;28;20086;-70
2021/09/29 16:08:14;;;;;;;1.05;1.00;;;;;;;;;;4983579;28;20054;-70
2021/09/29 16:30:08;;;;;;;0.80;0.70;;;;;;;;;;4978271;28;20058;-69
2021/09/29 16:35:12;;;;;;;2.40;0.70;;;;;;;;;;4982430;28;20057;-69
2021/09/29 16:37:39;;;;;;;1.90;0.40;;;;;;;;;;4982135;28;20066;-71
2021/09/29 16:40:06;;;;;;;0.95;0.50;;;;;;;;;;4987155;28;20182;-70
2021/09/29 16:42:33;;;;;;;0.32;0.22;;;;;;;;;;4983058;28;20055;-72
2021/09/29 16:45:03;;;;;;;1.25;0.40;;;;;;;;;;4985183;28;20058;-71
2021/09/29 16:47:30;;;;;;;1.85;0.30;;;;;;;;;;4981960;28;20047;-72
2021/09/29 16:49:58;;;;;;;0.40;0.13;;;;;;;;;;4988326;28;20398;-70
2021/09/29 16:52:37;;;;;;;0.68;0.40;;;;;;;;;;4984188;28;20461;-69
2021/09/29 16:55:07;;;;;;;1.55;0.60;;;;;;;;;;4983622;28;20485;-68
2021/09/29 16:57:41;;;;;;;2.88;0.52;;;;;;;;;;4987084;28;20506;-68
2021/09/29 17:00:21;;;;;;;5.20;0.47;;;;;;;;;;4983655;28;20042;-68
2021/09/29 17:02:49;;;;;;;3.42;0.60;;;;;;;;;;4979734;28;20046;-68
2021/09/29 17:05:16;;;;;;;0.40;0.38;;;;;;;;;;4983058;28;20501;-66
2021/09/29 17:07:42;;;;;;;2.65;0.40;;;;;;;;;;4984923;28;20059;-70
2021/09/29 17:10:12;;;;;;;0.55;0.40;;;;;;;;;;4985923;28;20129;-71
2021/09/29 17:12:43;;;;;;;3.25;0.47;;;;;;;;;;4983618;28;20089;-69
2021/09/29 17:15:10;;;;;;;1.80;0.50;;;;;;;;;;4980664;28;20092;-73
2021/09/29 17:17:41;;;;;;;0.30;0.30;;;;;;;;;;4982978;28;20050;-69
2021/09/29 17:20:08;;;;;;;1.40;0.38;;;;;;;;;;4986911;28;20085;-70
2021/09/29 17:22:35;;;;;;;0.90;0.40;;;;;;;;;;4984539;28;20051;-71
2021/09/29 17:25:02;;;;;;;1.50;0.57;;;;;;;;;;4984156;28;20497;-66
2021/09/29 17:27:29;;;;;;;0.75;0.38;;;;;;;;;;4983722;28;20050;-67
2021/09/29 17:29:58;;;;;;;2.13;0.40;;;;;;;;;;4986312;28;20054;-66
2021/09/29 17:32:41;;;;;;;1.50;0.50;;;;;;;;;;4986260;28;20069;-68
2021/09/29 17:35:14;;;;;;;0.97;0.53;;;;;;;;;;4985373;28;20089;-64
2021/09/29 17:53:53;;;;;;;2.25;0.50;;;;;;;;;;4982361;28;20058;-64
2021/09/29 17:56:20;;;;;;;1.65;0.60;;;;;;;;;;4979021;28;20117;-65
2021/09/29 17:58:47;;;;;;;1.63;0.50;;;;;;;;;;4981829;28;20128;-64
2021/09/29 18:01:20;;;;;;;1.23;0.40;;;;;;;;;;4983074;28;20137;-65
2021/09/29 18:04:02;;;;;;;1.95;0.50;;;;;;;;;;4982377;28;21202;-64
2021/09/29 18:09:02;;;;;;;1.23;0.40;;;;;;;;;;4981065;28;20418;-64
2021/09/29 18:11:29;;;;;;;0.75;0.60;;;;;;;;;;4983195;28;20526;-64
2021/09/29 18:13:56;;;;;;;2.50;0.55;;;;;;;;;;4983577;28;20051;-64
2021/09/29 18:16:37;;;;;;;2.33;0.50;;;;;;;;;;4982201;28;20046;-63
2021/09/29 18:19:03;;;;;;;3.60;0.55;;;;;;;;;;4983180;28;20465;-64
2021/09/29 18:21:30;;;;;;;0.40;0.30;;;;;;;;;;4977935;28;20057;-65
2021/09/29 18:23:57;;;;;;;0.40;0.40;;;;;;;;;;4983859;28;20055;-64
2021/09/29 18:26:24;;;;;;;0.50;0.32;;;;;;;;;;4982567;28;20050;-64
2021/09/29 18:28:52;;;;;;;2.05;0.63;;;;;;;;;;4981496;28;20054;-64
2021/09/29 18:31:19;;;;;;;1.85;0.50;;;;;;;;;;4979862;28;20058;-63
2021/09/29 18:33:45;;;;;;;1.38;0.60;;;;;;;;;;4980869;28;20066;-64
2021/09/29 18:36:14;;;;;;;0.73;0.52;;;;;;;;;;4983175;28;20510;-63
2021/09/29 18:38:42;;;;;;;0.65;0.43;;;;;;;;;;4982223;28;20050;-64
2021/09/29 18:41:30;;;;;;;1.25;0.50;;;;;;;;;;4979603;28;20358;-64
2021/09/29 18:43:59;;;;;;;2.42;0.70;;;;;;;;;;4982327;28;20050;-65
2021/09/29 18:46:26;;;;;;;1.60;0.70;;;;;;;;;;4982196;28;20051;-64
2021/09/29 18:48:53;;;;;;;1.65;0.70;;;;;;;;;;4983556;28;20560;-65
2021/09/29 18:51:21;;;;;;;1.20;0.60;;;;;;;;;;4981461;28;20056;-63
2021/09/29 18:54:01;;;;;;;3.88;0.80;;;;;;;;;;4976712;28;20050;-64
2021/09/29 19:07:40;;;;;;;2.42;0.77;;;;;;;;;;4979249;28;20046;-65
2021/09/29 19:10:08;;;;;;;1.17;0.32;;;;;;;;;;4982894;28;20046;-64
2021/09/29 19:12:34;;;;;;;3.65;0.50;;;;;;;;;;4981921;28;20478;-65
2021/09/29 19:15:01;;;;;;;3.85;1.15;;;;;;;;;;4980356;28;20104;-66
2021/09/29 19:17:27;;;;;;;1.15;0.40;;;;;;;;;;4981468;28;20090;-66